sensor_id;sensor_type;location;lat;lon;timestamp;pressure;altitude;pressure_sealevel;temperature;humidity
19827;BME280;10074;52.018;4.726;2023-04-20T00:04:20;46780.72;;;-144.79;95.34
19827;BME280;10074;52.018;4.726;2023-04-20T00:09:21;46776.69;;;-144.79;95.54
19827;BME280;10074;52.018;4.726;2023-04-20T00:14:22;46768.69;;;-144.79;95.45
19827;BME280;10074;52.018;4.726;2023-04-20T00:19:22;46804.78;;;-144.79;95.10
19827;BME280;10074;52.018;4.726;2023-04-20T00:24:23;46796.75;;;-144.79;95.02
19827;BME280;10074;52.018;4.726;2023-04-20T00:29:23;46776.69;;;-144.79;94.95
19827;BME280;10074;52.018;4.726;2023-04-20T00:34:23;46786.72;;;-144.79;95.02
19827;BME280;10074;52.018;4.726;2023-04-20T00:39:23;46800.75;;;-144.79;94.69
19827;BME280;10074;52.018;4.726;2023-04-20T00:44:24;46788.72;;;-144.79;94.44
19827;BME280;10074;52.018;4.726;2023-04-20T00:49:28;46792.75;;;-144.79;94.88
19827;BME280;10074;52.018;4.726;2023-04-20T00:54:30;46780.72;;;-144.79;94.79
19827;BME280;10074;52.018;4.726;2023-04-20T00:59:31;46796.75;;;-144.79;94.65
19827;BME280;10074;52.018;4.726;2023-04-20T01:04:31;46784.72;;;-144.79;94.37
19827;BME280;10074;52.018;4.726;2023-04-20T01:09:36;46800.75;;;-144.79;94.54
19827;BME280;10074;52.018;4.726;2023-04-20T01:14:37;46804.78;;;-144.79;94.78
19827;BME280;10074;52.018;4.726;2023-04-20T01:19:38;46800.75;;;-144.79;94.78
19827;BME280;10074;52.018;4.726;2023-04-20T01:24:38;46800.75;;;-144.79;94.81
19827;BME280;10074;52.018;4.726;2023-04-20T01:29:38;46800.75;;;-144.79;94.96
19827;BME280;10074;52.018;4.726;2023-04-20T01:34:39;46776.69;;;-144.79;95.22
19827;BME280;10074;52.018;4.726;2023-04-20T01:39:39;46804.78;;;-144.79;95.04
19827;BME280;10074;52.018;4.726;2023-04-20T01:44:40;46792.75;;;-144.79;95.01
19827;BME280;10074;52.018;4.726;2023-04-20T01:49:40;46812.78;;;-144.79;95.17
19827;BME280;10074;52.018;4.726;2023-04-20T01:54:40;46778.69;;;-144.79;95.11
19827;BME280;10074;52.018;4.726;2023-04-20T01:59:40;46786.72;;;-144.79;95.12
19827;BME280;10074;52.018;4.726;2023-04-20T02:04:41;46830.84;;;-144.79;94.88
19827;BME280;10074;52.018;4.726;2023-04-20T02:09:41;46774.69;;;-144.79;95.19
19827;BME280;10074;52.018;4.726;2023-04-20T02:14:41;46794.75;;;-144.79;95.13
19827;BME280;10074;52.018;4.726;2023-04-20T02:19:42;46814.81;;;-144.79;95.20
19827;BME280;10074;52.018;4.726;2023-04-20T02:24:42;46798.75;;;-144.79;95.38
19827;BME280;10074;52.018;4.726;2023-04-20T02:29:42;46788.72;;;-144.79;95.43
19827;BME280;10074;52.018;4.726;2023-04-20T02:34:43;46776.69;;;-144.79;95.63
19827;BME280;10074;52.018;4.726;2023-04-20T02:39:43;46800.75;;;-144.79;95.29
19827;BME280;10074;52.018;4.726;2023-04-20T02:44:43;46812.78;;;-144.79;95.65
19827;BME280;10074;52.018;4.726;2023-04-20T02:49:43;46800.75;;;-144.79;95.75
19827;BME280;10074;52.018;4.726;2023-04-20T02:54:44;46796.75;;;-144.79;95.42
19827;BME280;10074;52.018;4.726;2023-04-20T02:59:44;46792.75;;;-144.79;95.59
19827;BME280;10074;52.018;4.726;2023-04-20T03:04:45;46802.78;;;-144.79;95.68
19827;BME280;10074;52.018;4.726;2023-04-20T03:09:45;46794.75;;;-144.79;95.56
19827;BME280;10074;52.018;4.726;2023-04-20T03:14:45;46782.72;;;-144.79;95.93
19827;BME280;10074;52.018;4.726;2023-04-20T03:19:46;46766.66;;;-144.79;96.00
19827;BME280;10074;52.018;4.726;2023-04-20T03:24:46;46778.69;;;-144.79;96.18
19827;BME280;10074;52.018;4.726;2023-04-20T03:29:47;46772.69;;;-144.79;96.28
19827;BME280;10074;52.018;4.726;2023-04-20T03:34:47;46780.72;;;-144.79;96.24
19827;BME280;10074;52.018;4.726;2023-04-20T03:39:49;46780.72;;;-144.79;96.67
19827;BME280;10074;52.018;4.726;2023-04-20T03:44:49;46768.69;;;-144.79;96.39
19827;BME280;10074;52.018;4.726;2023-04-20T03:49:49;46760.66;;;-144.79;96.51
19827;BME280;10074;52.018;4.726;2023-04-20T03:54:50;46762.66;;;-144.79;96.38
19827;BME280;10074;52.018;4.726;2023-04-20T03:59:50;46766.66;;;-144.79;96.71
19827;BME280;10074;52.018;4.726;2023-04-20T04:04:51;46752.63;;;-144.79;96.84
19827;BME280;10074;52.018;4.726;2023-04-20T04:09:51;46760.66;;;-144.79;96.87
19827;BME280;10074;52.018;4.726;2023-04-20T04:14:51;46774.69;;;-144.79;97.26
19827;BME280;10074;52.018;4.726;2023-04-20T04:19:52;46742.59;;;-144.79;97.38
19827;BME280;10074;52.018;4.726;2023-04-20T04:24:52;46724.56;;;-144.79;97.81
19827;BME280;10074;52.018;4.726;2023-04-20T04:29:53;46710.53;;;-144.79;98.11
19827;BME280;10074;52.018;4.726;2023-04-20T04:34:54;46696.47;;;-144.79;98.22
19827;BME280;10074;52.018;4.726;2023-04-20T04:39:54;46706.50;;;-144.79;98.13
19827;BME280;10074;52.018;4.726;2023-04-20T04:44:57;46704.50;;;-144.79;98.25
19827;BME280;10074;52.018;4.726;2023-04-20T04:50:04;46686.47;;;-144.79;98.43
19827;BME280;10074;52.018;4.726;2023-04-20T04:55:05;46696.47;;;-144.79;98.58
19827;BME280;10074;52.018;4.726;2023-04-20T05:00:08;46670.41;;;-144.79;98.67
19827;BME280;10074;52.018;4.726;2023-04-20T05:05:10;46666.41;;;-144.79;98.99
19827;BME280;10074;52.018;4.726;2023-04-20T05:10:11;46704.50;;;-144.79;98.86
19827;BME280;10074;52.018;4.726;2023-04-20T05:15:11;46648.34;;;-144.79;99.23
19827;BME280;10074;52.018;4.726;2023-04-20T05:20:11;46648.34;;;-144.79;99.23
19827;BME280;10074;52.018;4.726;2023-04-20T05:25:13;46644.34;;;-144.79;99.55
19827;BME280;10074;52.018;4.726;2023-04-20T05:30:13;46578.19;;;-144.79;99.95
19827;BME280;10074;52.018;4.726;2023-04-20T05:35:13;46481.91;;;-144.79;100.00
19827;BME280;10074;52.018;4.726;2023-04-20T05:40:14;46411.75;;;-144.79;100.00
19827;BME280;10074;52.018;4.726;2023-04-20T05:45:14;46339.56;;;-144.79;100.00
19827;BME280;10074;52.018;4.726;2023-04-20T05:50:15;46363.63;;;-144.79;100.00
19827;BME280;10074;52.018;4.726;2023-04-20T05:55:15;46395.69;;;-144.79;100.00
19827;BME280;10074;52.018;4.726;2023-04-20T06:00:16;46395.69;;;-144.79;100.00
19827;BME280;10074;52.018;4.726;2023-04-20T06:05:16;46469.88;;;-144.79;100.00
19827;BME280;10074;52.018;4.726;2023-04-20T06:10:16;46467.88;;;-144.79;100.00
19827;BME280;10074;52.018;4.726;2023-04-20T06:15:17;46495.97;;;-144.79;100.00
19827;BME280;10074;52.018;4.726;2023-04-20T06:20:17;46473.91;;;-144.79;100.00
19827;BME280;10074;52.018;4.726;2023-04-20T06:25:18;46532.06;;;-144.79;100.00
19827;BME280;10074;52.018;4.726;2023-04-20T06:30:19;46536.06;;;-144.79;100.00
19827;BME280;10074;52.018;4.726;2023-04-20T06:35:19;46516.00;;;-144.79;100.00
19827;BME280;10074;52.018;4.726;2023-04-20T06:40:20;46503.97;;;-144.79;100.00
19827;BME280;10074;52.018;4.726;2023-04-20T06:45:20;46570.16;;;-144.79;100.00
19827;BME280;10074;52.018;4.726;2023-04-20T06:50:20;46616.28;;;-144.79;99.27
19827;BME280;10074;52.018;4.726;2023-04-20T06:55:21;46632.31;;;-144.79;99.18
19827;BME280;10074;52.018;4.726;2023-04-20T07:00:21;46337.56;;;-144.79;100.00
19827;BME280;10074;52.018;4.726;2023-04-20T07:05:22;46181.16;;;-144.79;100.00
19827;BME280;10074;52.018;4.726;2023-04-20T07:10:22;46173.13;;;-144.79;100.00
19827;BME280;10074;52.018;4.726;2023-04-20T07:15:23;46181.16;;;-144.79;100.00
19827;BME280;10074;52.018;4.726;2023-04-20T07:20:23;46211.22;;;-144.79;100.00
19827;BME280;10074;52.018;4.726;2023-04-20T07:25:24;46181.16;;;-144.79;100.00
19827;BME280;10074;52.018;4.726;2023-04-20T07:30:25;46181.16;;;-144.79;100.00
19827;BME280;10074;52.018;4.726;2023-04-20T07:35:25;46173.13;;;-144.79;100.00
19827;BME280;10074;52.018;4.726;2023-04-20T07:40:25;46163.13;;;-144.79;100.00
19827;BME280;10074;52.018;4.726;2023-04-20T07:45:26;46175.16;;;-144.79;100.00
19827;BME280;10074;52.018;4.726;2023-04-20T07:50:26;46175.16;;;-144.79;100.00
19827;BME280;10074;52.018;4.726;2023-04-20T07:55:26;46157.09;;;-144.79;100.00
19827;BME280;10074;52.018;4.726;2023-04-20T08:00:27;46155.09;;;-144.79;100.00
19827;BME280;10074;52.018;4.726;2023-04-20T08:05:27;46191.19;;;-144.79;100.00
19827;BME280;10074;52.018;4.726;2023-04-20T08:10:27;46139.06;;;-144.79;100.00
19827;BME280;10074;52.018;4.726;2023-04-20T08:15:28;46151.09;;;-144.79;100.00
19827;BME280;10074;52.018;4.726;2023-04-20T08:20:28;46159.09;;;-144.79;100.00
19827;BME280;10074;52.018;4.726;2023-04-20T08:25:28;46143.06;;;-144.79;100.00
19827;BME280;10074;52.018;4.726;2023-04-20T08:30:29;46145.06;;;-144.79;100.00
19827;BME280;10074;52.018;4.726;2023-04-20T08:35:29;46163.13;;;-144.79;100.00
19827;BME280;10074;52.018;4.726;2023-04-20T08:40:30;46159.09;;;-144.79;100.00
19827;BME280;10074;52.018;4.726;2023-04-20T08:45:31;46133.03;;;-144.79;100.00
19827;BME280;10074;52.018;4.726;2023-04-20T08:50:31;46135.03;;;-144.79;100.00
19827;BME280;10074;52.018;4.726;2023-04-20T08:55:32;46145.06;;;-144.79;100.00
19827;BME280;10074;52.018;4.726;2023-04-20T09:00:32;46151.09;;;-144.79;100.00
19827;BME280;10074;52.018;4.726;2023-04-20T09:05:32;46171.13;;;-144.79;100.00
19827;BME280;10074;52.018;4.726;2023-04-20T09:10:43;46139.06;;;-144.79;100.00
19827;BME280;10074;52.018;4.726;2023-04-20T09:15:44;46147.06;;;-144.79;100.00
19827;BME280;10074;52.018;4.726;2023-04-20T09:20:44;46159.09;;;-144.79;100.00
19827;BME280;10074;52.018;4.726;2023-04-20T09:25:49;46151.09;;;-144.79;100.00
19827;BME280;10074;52.018;4.726;2023-04-20T09:30:49;46155.09;;;-144.79;100.00
19827;BME280;10074;52.018;4.726;2023-04-20T09:35:50;46169.13;;;-144.79;100.00
19827;BME280;10074;52.018;4.726;2023-04-20T09:40:52;46209.22;;;-144.79;100.00
19827;BME280;10074;52.018;4.726;2023-04-20T09:45:53;46207.22;;;-144.79;100.00
19827;BME280;10074;52.018;4.726;2023-04-20T09:50:55;46231.28;;;-144.79;100.00
19827;BME280;10074;52.018;4.726;2023-04-20T09:55:55;46291.44;;;-144.79;100.00
19827;BME280;10074;52.018;4.726;2023-04-20T10:00:57;46281.41;;;-144.79;100.00
19827;BME280;10074;52.018;4.726;2023-04-20T10:05:57;46263.38;;;-144.79;100.00
19827;BME280;10074;52.018;4.726;2023-04-20T10:10:58;46293.44;;;-144.79;100.00
19827;BME280;10074;52.018;4.726;2023-04-20T10:15:58;46271.38;;;-144.79;100.00
19827;BME280;10074;52.018;4.726;2023-04-20T10:21:06;46303.47;;;-144.79;100.00
19827;BME280;10074;52.018;4.726;2023-04-20T10:26:08;46323.53;;;-144.79;100.00
19827;BME280;10074;52.018;4.726;2023-04-20T10:31:09;46357.59;;;-144.79;100.00
19827;BME280;10074;52.018;4.726;2023-04-20T10:36:21;46387.69;;;-144.79;100.00
19827;BME280;10074;52.018;4.726;2023-04-20T10:41:22;46337.56;;;-144.79;100.00
19827;BME280;10074;52.018;4.726;2023-04-20T10:46:23;46389.69;;;-144.79;100.00
19827;BME280;10074;52.018;4.726;2023-04-20T10:51:24;46339.56;;;-144.79;100.00
19827;BME280;10074;52.018;4.726;2023-04-20T10:56:25;46315.50;;;-144.79;100.00
19827;BME280;10074;52.018;4.726;2023-04-20T11:01:30;46235.28;;;-144.79;100.00
19827;BME280;10074;52.018;4.726;2023-04-20T11:06:32;46235.28;;;-144.79;100.00
19827;BME280;10074;52.018;4.726;2023-04-20T11:11:32;46227.28;;;-144.79;100.00
19827;BME280;10074;52.018;4.726;2023-04-20T11:16:36;46219.25;;;-144.79;100.00
19827;BME280;10074;52.018;4.726;2023-04-20T11:21:39;46227.28;;;-144.79;100.00
19827;BME280;10074;52.018;4.726;2023-04-20T11:26:40;46241.31;;;-144.79;100.00
19827;BME280;10074;52.018;4.726;2023-04-20T11:31:41;46219.25;;;-144.79;100.00
19827;BME280;10074;52.018;4.726;2023-04-20T11:36:41;46211.22;;;-144.79;100.00
19827;BME280;10074;52.018;4.726;2023-04-20T11:41:41;46247.31;;;-144.79;100.00
19827;BME280;10074;52.018;4.726;2023-04-20T11:46:42;46231.28;;;-144.79;100.00
19827;BME280;10074;52.018;4.726;2023-04-20T11:51:43;46203.22;;;-144.79;100.00
19827;BME280;10074;52.018;4.726;2023-04-20T11:56:44;46237.31;;;-144.79;100.00
19827;BME280;10074;52.018;4.726;2023-04-20T12:01:44;46247.31;;;-144.79;100.00
19827;BME280;10074;52.018;4.726;2023-04-20T12:06:45;46215.25;;;-144.79;100.00
19827;BME280;10074;52.018;4.726;2023-04-20T12:11:46;46213.25;;;-144.79;100.00
19827;BME280;10074;52.018;4.726;2023-04-20T12:16:46;46217.25;;;-144.79;100.00
19827;BME280;10074;52.018;4.726;2023-04-20T12:21:46;46215.25;;;-144.79;100.00
19827;BME280;10074;52.018;4.726;2023-04-20T12:26:47;46223.25;;;-144.79;100.00
19827;BME280;10074;52.018;4.726;2023-04-20T12:31:47;46191.19;;;-144.79;100.00
19827;BME280;10074;52.018;4.726;2023-04-20T12:36:48;46183.16;;;-144.79;100.00
19827;BME280;10074;52.018;4.726;2023-04-20T12:41:48;46203.22;;;-144.79;100.00
19827;BME280;10074;52.018;4.726;2023-04-20T12:46:48;46209.22;;;-144.79;100.00
19827;BME280;10074;52.018;4.726;2023-04-20T12:51:48;46183.16;;;-144.79;100.00
19827;BME280;10074;52.018;4.726;2023-04-20T12:56:49;46191.19;;;-144.79;100.00
19827;BME280;10074;52.018;4.726;2023-04-20T13:01:49;46195.19;;;-144.79;100.00
19827;BME280;10074;52.018;4.726;2023-04-20T13:06:50;46211.22;;;-144.79;100.00
19827;BME280;10074;52.018;4.726;2023-04-20T13:11:50;46181.16;;;-144.79;100.00
19827;BME280;10074;52.018;4.726;2023-04-20T13:16:51;46191.19;;;-144.79;100.00
19827;BME280;10074;52.018;4.726;2023-04-20T13:21:51;46195.19;;;-144.79;100.00
19827;BME280;10074;52.018;4.726;2023-04-20T13:26:54;46183.16;;;-144.79;100.00
19827;BME280;10074;52.018;4.726;2023-04-20T13:31:58;46153.09;;;-144.79;100.00
19827;BME280;10074;52.018;4.726;2023-04-20T13:36:58;46195.19;;;-144.79;100.00
19827;BME280;10074;52.018;4.726;2023-04-20T13:41:58;46175.16;;;-144.79;100.00
19827;BME280;10074;52.018;4.726;2023-04-20T13:46:59;46187.19;;;-144.79;100.00
19827;BME280;10074;52.018;4.726;2023-04-20T13:51:59;46167.13;;;-144.79;100.00
19827;BME280;10074;52.018;4.726;2023-04-20T13:56:59;46201.22;;;-144.79;100.00
19827;BME280;10074;52.018;4.726;2023-04-20T14:02:00;46175.16;;;-144.79;100.00
19827;BME280;10074;52.018;4.726;2023-04-20T14:07:01;46179.16;;;-144.79;100.00
19827;BME280;10074;52.018;4.726;2023-04-20T14:12:01;46197.19;;;-144.79;100.00
19827;BME280;10074;52.018;4.726;2023-04-20T14:17:02;46173.13;;;-144.79;100.00
19827;BME280;10074;52.018;4.726;2023-04-20T14:22:02;46179.16;;;-144.79;100.00
19827;BME280;10074;52.018;4.726;2023-04-20T14:27:03;46167.13;;;-144.79;100.00
19827;BME280;10074;52.018;4.726;2023-04-20T14:32:03;46165.13;;;-144.79;100.00
19827;BME280;10074;52.018;4.726;2023-04-20T14:37:04;46153.09;;;-144.79;100.00
19827;BME280;10074;52.018;4.726;2023-04-20T14:42:04;46195.19;;;-144.79;100.00
19827;BME280;10074;52.018;4.726;2023-04-20T14:47:04;46195.19;;;-144.79;100.00
19827;BME280;10074;52.018;4.726;2023-04-20T14:52:05;46163.13;;;-144.79;100.00
19827;BME280;10074;52.018;4.726;2023-04-20T14:57:06;46181.16;;;-144.79;100.00
19827;BME280;10074;52.018;4.726;2023-04-20T15:02:06;46165.13;;;-144.79;100.00
19827;BME280;10074;52.018;4.726;2023-04-20T15:07:06;46171.13;;;-144.79;100.00
19827;BME280;10074;52.018;4.726;2023-04-20T15:12:07;46169.13;;;-144.79;100.00
19827;BME280;10074;52.018;4.726;2023-04-20T15:17:07;46183.16;;;-144.79;100.00
19827;BME280;10074;52.018;4.726;2023-04-20T15:22:07;46187.19;;;-144.79;100.00
19827;BME280;10074;52.018;4.726;2023-04-20T15:27:08;46163.13;;;-144.79;100.00
19827;BME280;10074;52.018;4.726;2023-04-20T15:32:08;46177.16;;;-144.79;100.00
19827;BME280;10074;52.018;4.726;2023-04-20T15:37:08;46165.13;;;-144.79;100.00
19827;BME280;10074;52.018;4.726;2023-04-20T15:42:08;46171.13;;;-144.79;100.00
19827;BME280;10074;52.018;4.726;2023-04-20T15:47:09;46155.09;;;-144.79;100.00
19827;BME280;10074;52.018;4.726;2023-04-20T15:52:10;46169.13;;;-144.79;100.00
19827;BME280;10074;52.018;4.726;2023-04-20T15:57:10;46139.06;;;-144.79;100.00
19827;BME280;10074;52.018;4.726;2023-04-20T16:02:11;46175.16;;;-144.79;100.00
19827;BME280;10074;52.018;4.726;2023-04-20T16:07:12;46193.19;;;-144.79;100.00
19827;BME280;10074;52.018;4.726;2023-04-20T16:12:12;46171.13;;;-144.79;100.00
19827;BME280;10074;52.018;4.726;2023-04-20T16:17:12;46197.19;;;-144.79;100.00
19827;BME280;10074;52.018;4.726;2023-04-20T16:22:13;46191.19;;;-144.79;100.00
19827;BME280;10074;52.018;4.726;2023-04-20T16:27:13;46173.13;;;-144.79;100.00
19827;BME280;10074;52.018;4.726;2023-04-20T16:32:13;46151.09;;;-144.79;100.00
19827;BME280;10074;52.018;4.726;2023-04-20T16:37:14;46183.16;;;-144.79;100.00
19827;BME280;10074;52.018;4.726;2023-04-20T16:42:14;46197.19;;;-144.79;100.00
19827;BME280;10074;52.018;4.726;2023-04-20T16:47:14;46187.19;;;-144.79;100.00
19827;BME280;10074;52.018;4.726;2023-04-20T16:52:15;46177.16;;;-144.79;100.00
19827;BME280;10074;52.018;4.726;2023-04-20T16:57:15;46177.16;;;-144.79;100.00
19827;BME280;10074;52.018;4.726;2023-04-20T17:02:15;46197.19;;;-144.79;100.00
19827;BME280;10074;52.018;4.726;2023-04-20T17:07:16;46195.19;;;-144.79;100.00
19827;BME280;10074;52.018;4.726;2023-04-20T17:12:16;46183.16;;;-144.79;100.00
19827;BME280;10074;52.018;4.726;2023-04-20T17:17:16;46177.16;;;-144.79;100.00
19827;BME280;10074;52.018;4.726;2023-04-20T17:22:17;46181.16;;;-144.79;100.00
19827;BME280;10074;52.018;4.726;2023-04-20T17:27:18;46173.13;;;-144.79;100.00
19827;BME280;10074;52.018;4.726;2023-04-20T17:32:18;46199.19;;;-144.79;100.00
19827;BME280;10074;52.018;4.726;2023-04-20T17:37:19;46171.13;;;-144.79;100.00
19827;BME280;10074;52.018;4.726;2023-04-20T17:42:20;46173.13;;;-144.79;100.00
19827;BME280;10074;52.018;4.726;2023-04-20T17:47:20;46153.09;;;-144.79;100.00
19827;BME280;10074;52.018;4.726;2023-04-20T17:52:20;46159.09;;;-144.79;100.00
19827;BME280;10074;52.018;4.726;2023-04-20T17:57:21;46183.16;;;-144.79;100.00
19827;BME280;10074;52.018;4.726;2023-04-20T18:02:22;46165.13;;;-144.79;100.00
19827;BME280;10074;52.018;4.726;2023-04-20T18:07:23;46151.09;;;-144.79;100.00
19827;BME280;10074;52.018;4.726;2023-04-20T18:12:24;46155.09;;;-144.79;100.00
19827;BME280;10074;52.018;4.726;2023-04-20T18:17:24;46139.06;;;-144.79;100.00
19827;BME280;10074;52.018;4.726;2023-04-20T18:22:24;46139.06;;;-144.79;100.00
19827;BME280;10074;52.018;4.726;2023-04-20T18:27:25;46143.06;;;-144.79;100.00
19827;BME280;10074;52.018;4.726;2023-04-20T18:32:26;46153.09;;;-144.79;100.00
19827;BME280;10074;52.018;4.726;2023-04-20T18:37:26;46155.09;;;-144.79;100.00
19827;BME280;10074;52.018;4.726;2023-04-20T18:42:26;46135.03;;;-144.79;100.00
19827;BME280;10074;52.018;4.726;2023-04-20T18:47:27;46147.06;;;-144.79;100.00
19827;BME280;10074;52.018;4.726;2023-04-20T18:52:31;46165.13;;;-144.79;100.00
19827;BME280;10074;52.018;4.726;2023-04-20T18:57:31;46149.06;;;-144.79;100.00
19827;BME280;10074;52.018;4.726;2023-04-20T19:02:32;46143.06;;;-144.79;100.00
19827;BME280;10074;52.018;4.726;2023-04-20T19:07:32;46157.09;;;-144.79;100.00
19827;BME280;10074;52.018;4.726;2023-04-20T19:12:34;46147.06;;;-144.79;100.00
19827;BME280;10074;52.018;4.726;2023-04-20T19:17:36;46171.13;;;-144.79;100.00
19827;BME280;10074;52.018;4.726;2023-04-20T19:22:37;46179.16;;;-144.79;100.00
19827;BME280;10074;52.018;4.726;2023-04-20T19:27:37;46143.06;;;-144.79;100.00
19827;BME280;10074;52.018;4.726;2023-04-20T19:32:37;46139.06;;;-144.79;100.00
19827;BME280;10074;52.018;4.726;2023-04-20T19:37:38;46159.09;;;-144.79;100.00
19827;BME280;10074;52.018;4.726;2023-04-20T19:42:38;46163.13;;;-144.79;100.00
19827;BME280;10074;52.018;4.726;2023-04-20T19:47:39;46149.06;;;-144.79;100.00
19827;BME280;10074;52.018;4.726;2023-04-20T19:52:40;46145.06;;;-144.79;100.00
19827;BME280;10074;52.018;4.726;2023-04-20T19:57:40;46135.03;;;-144.79;100.00
19827;BME280;10074;52.018;4.726;2023-04-20T20:02:40;46177.16;;;-144.79;100.00
19827;BME280;10074;52.018;4.726;2023-04-20T20:07:41;46139.06;;;-144.79;100.00
19827;BME280;10074;52.018;4.726;2023-04-20T20:12:41;46167.13;;;-144.79;100.00
19827;BME280;10074;52.018;4.726;2023-04-20T20:17:43;46175.16;;;-144.79;100.00
19827;BME280;10074;52.018;4.726;2023-04-20T20:22:45;46155.09;;;-144.79;100.00
19827;BME280;10074;52.018;4.726;2023-04-20T20:27:47;46135.03;;;-144.79;100.00
19827;BME280;10074;52.018;4.726;2023-04-20T20:32:47;46165.13;;;-144.79;100.00
19827;BME280;10074;52.018;4.726;2023-04-20T20:37:48;46155.09;;;-144.79;100.00
19827;BME280;10074;52.018;4.726;2023-04-20T20:42:48;46143.06;;;-144.79;100.00
19827;BME280;10074;52.018;4.726;2023-04-20T20:47:48;46147.06;;;-144.79;100.00
19827;BME280;10074;52.018;4.726;2023-04-20T20:52:49;46149.06;;;-144.79;100.00
19827;BME280;10074;52.018;4.726;2023-04-20T20:57:49;46147.06;;;-144.79;100.00
19827;BME280;10074;52.018;4.726;2023-04-20T21:02:50;46149.06;;;-144.79;100.00
19827;BME280;10074;52.018;4.726;2023-04-20T21:07:51;46151.09;;;-144.79;100.00
19827;BME280;10074;52.018;4.726;2023-04-20T21:12:51;46177.16;;;-144.79;100.00
19827;BME280;10074;52.018;4.726;2023-04-20T21:17:51;46163.13;;;-144.79;100.00
19827;BME280;10074;52.018;4.726;2023-04-20T21:22:52;46137.06;;;-144.79;100.00
19827;BME280;10074;52.018;4.726;2023-04-20T21:27:52;46147.06;;;-144.79;100.00
19827;BME280;10074;52.018;4.726;2023-04-20T21:32:53;46153.09;;;-144.79;100.00
19827;BME280;10074;52.018;4.726;2023-04-20T21:37:53;46159.09;;;-144.79;100.00
19827;BME280;10074;52.018;4.726;2023-04-20T21:42:53;46155.09;;;-144.79;100.00
19827;BME280;10074;52.018;4.726;2023-04-20T21:47:54;46151.09;;;-144.79;100.00
19827;BME280;10074;52.018;4.726;2023-04-20T21:52:54;46135.03;;;-144.79;100.00
19827;BME280;10074;52.018;4.726;2023-04-20T21:57:54;46165.13;;;-144.79;100.00
19827;BME280;10074;52.018;4.726;2023-04-20T22:02:55;46145.06;;;-144.79;100.00
19827;BME280;10074;52.018;4.726;2023-04-20T22:07:55;46151.09;;;-144.79;100.00
19827;BME280;10074;52.018;4.726;2023-04-20T22:12:56;46147.06;;;-144.79;100.00
19827;BME280;10074;52.018;4.726;2023-04-20T22:17:57;46165.13;;;-144.79;100.00
19827;BME280;10074;52.018;4.726;2023-04-20T22:22:59;46147.06;;;-144.79;100.00
19827;BME280;10074;52.018;4.726;2023-04-20T22:27:59;46151.09;;;-144.79;100.00
19827;BME280;10074;52.018;4.726;2023-04-20T22:33:00;46155.09;;;-144.79;100.00
19827;BME280;10074;52.018;4.726;2023-04-20T22:38:00;46159.09;;;-144.79;100.00
19827;BME280;10074;52.018;4.726;2023-04-20T22:43:00;46167.13;;;-144.79;100.00
19827;BME280;10074;52.018;4.726;2023-04-20T22:48:01;46157.09;;;-144.79;100.00
19827;BME280;10074;52.018;4.726;2023-04-20T22:53:01;46155.09;;;-144.79;100.00
19827;BME280;10074;52.018;4.726;2023-04-20T22:58:02;46155.09;;;-144.79;100.00
19827;BME280;10074;52.018;4.726;2023-04-20T23:03:02;46165.13;;;-144.79;100.00
19827;BME280;10074;52.018;4.726;2023-04-20T23:08:02;46151.09;;;-144.79;100.00
19827;BME280;10074;52.018;4.726;2023-04-20T23:13:02;46171.13;;;-144.79;100.00
19827;BME280;10074;52.018;4.726;2023-04-20T23:18:04;46141.06;;;-144.79;100.00
19827;BME280;10074;52.018;4.726;2023-04-20T23:23:04;46155.09;;;-144.79;100.00
19827;BME280;10074;52.018;4.726;2023-04-20T23:28:06;46169.13;;;-144.79;100.00
19827;BME280;10074;52.018;4.726;2023-04-20T23:33:06;46161.09;;;-144.79;100.00
19827;BME280;10074;52.018;4.726;2023-04-20T23:38:07;46165.13;;;-144.79;100.00
19827;BME280;10074;52.018;4.726;2023-04-20T23:43:07;46171.13;;;-144.79;100.00
19827;BME280;10074;52.018;4.726;2023-04-20T23:48:07;46159.09;;;-144.79;100.00
19827;BME280;10074;52.018;4.726;2023-04-20T23:53:08;46167.13;;;-144.79;100.00
19827;BME280;10074;52.018;4.726;2023-04-20T23:58:09;46161.09;;;-144.79;100.00
